Terminal Aerodrome Forecast
Issued by NWS South Bend, IN

Home | Current Version | Previous Version | Text Only | Print | Product List | Glossary Off
Versions: 1 2 3 4 5 6 7 8 9 10 11 12 13

000
FTUS43 KIWX 152300
TAFSBN
TAF
KSBN 152320Z 1600/1624 10013KT P6SM BKN100
     FM160800 13010KT P6SM -SHRA OVC040
     FM161200 14009KT 5SM -SHRA BR OVC020
     FM162000 24007KT P6SM BKN020=

USA.gov is the U.S. government's official web portal to all federal, state and local government web resources and services.